Time;durP1;ratioP1;P1;durP2;ratioP2;P2;SDS_P1;SDS_P2;PMS_P1;PMS_P2;Temp;Humidity;BMP_temperature;BMP_pressure;BME280_temperature;BME280_humidity;BME280_pressure;Samples;Min_cycle;Max_cycle;Signal;HPM_P1;HPM_P2
2023/07/08 00:01:11;;;;;;;1.00;1.00;;;;;19.80;96209.00;;;;5054569;28;20185;-54
2023/07/08 00:03:38;;;;;;;1.30;1.20;;;;;19.90;96208.00;;;;5052879;28;20223;-56
2023/07/08 00:06:11;;;;;;;1.55;1.48;;;;;19.30;96207.00;;;;5054029;28;20192;-55
2023/07/08 00:08:40;;;;;;;0.77;0.77;;;;;19.10;96206.00;;;;5054300;28;20231;-55
2023/07/08 00:11:11;;;;;;;0.80;0.80;;;;;18.80;96208.00;;;;5054000;28;20235;-55
2023/07/08 00:13:38;;;;;;;1.67;1.57;;;;;18.90;96201.00;;;;5053916;28;20549;-55
2023/07/08 00:16:09;;;;;;;2.30;1.50;;;;;19.00;96203.00;;;;5053841;28;20192;-56
2023/07/08 00:18:36;;;;;;;1.30;1.20;;;;;18.90;96200.00;;;;5054027;28;20577;-56
2023/07/08 00:21:05;;;;;;;2.03;1.33;;;;;18.90;96209.00;;;;5054046;28;20188;-56
2023/07/08 00:23:35;;;;;;;1.67;1.47;;;;;18.90;96196.00;;;;5053970;28;20215;-55
2023/07/08 00:26:10;;;;;;;8.93;1.93;;;;;19.00;96203.00;;;;5053668;28;20192;-55
2023/07/08 00:28:37;;;;;;;1.13;1.13;;;;;19.00;96201.00;;;;5053688;28;20211;-55
2023/07/08 00:31:09;;;;;;;1.70;1.60;;;;;19.20;96203.00;;;;5053472;28;20215;-55
2023/07/08 00:33:36;;;;;;;1.27;1.27;;;;;19.20;96203.00;;;;5053906;28;20221;-55
2023/07/08 00:36:12;;;;;;;2.40;2.23;;;;;19.10;96204.00;;;;5053763;28;20195;-55
2023/07/08 00:38:44;;;;;;;1.13;1.13;;;;;19.10;96200.00;;;;5053304;28;20219;-55
2023/07/08 00:41:21;;;;;;;4.37;2.17;;;;;19.00;96198.00;;;;5052094;28;20196;-56
2023/07/08 00:43:51;;;;;;;1.20;1.10;;;;;18.90;96199.00;;;;5053307;28;20176;-55
2023/07/08 00:46:42;;;;;;;1.23;1.23;;;;;18.90;96190.00;;;;5053313;28;20181;-54
2023/07/08 00:49:34;;;;;;;2.33;2.13;;;;;19.00;96191.00;;;;5053227;28;20310;-55
2023/07/08 00:52:22;;;;;;;6.13;1.20;;;;;18.90;96193.00;;;;5053744;28;20185;-54
2023/07/08 00:54:54;;;;;;;0.80;0.80;;;;;18.80;96200.00;;;;5053131;28;20562;-55
2023/07/08 00:57:29;;;;;;;0.90;0.90;;;;;18.80;96204.00;;;;5053336;28;20198;-56
2023/07/08 01:00:00;;;;;;;6.43;1.73;;;;;18.70;96196.00;;;;5053173;28;20210;-55
2023/07/08 01:02:30;;;;;;;2.83;1.43;;;;;18.70;96196.00;;;;5053131;28;20180;-57
2023/07/08 01:05:03;;;;;;;1.30;1.30;;;;;18.70;96195.00;;;;5052925;28;20196;-55
2023/07/08 01:07:32;;;;;;;1.73;1.63;;;;;18.70;96197.00;;;;5052324;28;20215;-55
2023/07/08 01:10:04;;;;;;;1.60;1.50;;;;;18.60;96187.00;;;;5052799;28;20239;-55
2023/07/08 01:12:37;;;;;;;1.27;1.23;;;;;18.60;96192.00;;;;5053205;28;20180;-55
2023/07/08 01:15:07;;;;;;;0.70;0.70;;;;;18.60;96194.00;;;;5051659;28;20668;-55
2023/07/08 01:17:35;;;;;;;2.50;2.40;;;;;18.60;96190.00;;;;5052844;28;20283;-55
2023/07/08 01:20:06;;;;;;;1.53;1.43;;;;;18.60;96187.00;;;;5052800;28;20263;-55
2023/07/08 01:22:36;;;;;;;1.47;1.43;;;;;18.50;96191.00;;;;5053166;28;20176;-55
2023/07/08 01:25:04;;;;;;;1.27;1.13;;;;;18.40;96194.00;;;;5052918;28;20655;-55
2023/07/08 01:27:36;;;;;;;2.37;2.07;;;;;18.50;96185.00;;;;5052671;28;20192;-55
2023/07/08 01:30:05;;;;;;;3.10;1.47;;;;;18.50;96195.00;;;;5052662;28;20207;-54
2023/07/08 01:32:37;;;;;;;0.80;0.80;;;;;18.40;96192.00;;;;5052677;28;20196;-55
2023/07/08 01:35:06;;;;;;;0.93;0.90;;;;;18.40;96187.00;;;;5053014;28;20188;-56
2023/07/08 01:37:37;;;;;;;1.10;1.10;;;;;18.40;96188.00;;;;5053080;28;20547;-56
2023/07/08 01:40:24;;;;;;;1.97;1.87;;;;;18.30;96188.00;;;;5052932;28;20545;-56
2023/07/08 01:42:52;;;;;;;2.87;1.40;;;;;18.20;96186.00;;;;5053179;28;20553;-55
2023/07/08 01:45:22;;;;;;;1.63;1.53;;;;;18.10;96191.00;;;;5052541;28;20244;-55
2023/07/08 01:47:55;;;;;;;2.07;1.87;;;;;18.00;96186.00;;;;5052730;28;20208;-55
2023/07/08 01:50:24;;;;;;;1.37;1.27;;;;;18.00;96176.00;;;;5052758;28;20200;-55
2023/07/08 01:52:55;;;;;;;1.93;1.83;;;;;18.00;96187.00;;;;5052816;28;20275;-55
2023/07/08 01:55:24;;;;;;;1.60;1.50;;;;;17.80;96185.00;;;;5052799;28;20184;-55
2023/07/08 01:57:53;;;;;;;1.90;1.43;;;;;17.70;96188.00;;;;5052450;28;20683;-55
2023/07/08 02:00:22;;;;;;;1.20;1.20;;;;;17.80;96187.00;;;;5052436;28;20195;-55
2023/07/08 02:02:49;;;;;;;1.93;1.73;;;;;17.80;96185.00;;;;5052411;28;20199;-56
2023/07/08 02:05:17;;;;;;;1.10;1.10;;;;;17.80;96188.00;;;;5052399;28;20192;-55
2023/07/08 02:07:44;;;;;;;2.20;1.37;;;;;17.80;96194.00;;;;5052275;28;20196;-55
2023/07/08 02:10:13;;;;;;;5.70;2.37;;;;;17.80;96190.00;;;;5052934;22;20237;-57
2023/07/08 02:12:40;;;;;;;2.23;2.03;;;;;17.90;96193.00;;;;5032460;28;20193;-57
2023/07/08 02:15:09;;;;;;;6.67;1.53;;;;;17.90;96198.00;;;;5032442;28;20197;-57
2023/07/08 02:17:37;;;;;;;3.83;1.47;;;;;18.00;96198.00;;;;5032596;28;20520;-57
2023/07/08 02:20:05;;;;;;;1.67;1.57;;;;;17.90;96193.00;;;;5036593;28;20224;-57
2023/07/08 02:22:33;;;;;;;2.33;2.13;;;;;18.00;96193.00;;;;5037070;28;20189;-57
2023/07/08 02:25:00;;;;;;;1.97;1.20;;;;;17.90;96192.00;;;;5036589;28;20197;-57
2023/07/08 02:27:29;;;;;;;1.83;1.73;;;;;18.00;96194.00;;;;5036528;28;20660;-58
2023/07/08 02:29:56;;;;;;;27.07;1.60;;;;;18.00;96197.00;;;;5036059;28;20212;-57
2023/07/08 02:32:24;;;;;;;1.33;1.27;;;;;17.90;96201.00;;;;5036226;28;20204;-57
2023/07/08 02:34:52;;;;;;;0.60;0.60;;;;;17.90;96208.00;;;;5036368;28;20672;-57
2023/07/08 02:37:19;;;;;;;0.80;0.80;;;;;17.90;96204.00;;;;5036172;28;20201;-56
2023/07/08 02:39:47;;;;;;;1.20;1.17;;;;;17.80;96199.00;;;;5035704;28;20213;-56
2023/07/08 02:42:14;;;;;;;2.27;1.53;;;;;17.80;96203.00;;;;5035987;28;20268;-56
2023/07/08 02:44:43;;;;;;;1.87;1.63;;;;;17.70;96202.00;;;;5036241;28;20200;-56
2023/07/08 02:47:10;;;;;;;2.00;1.33;;;;;17.70;96207.00;;;;5035680;28;20189;-56
2023/07/08 02:49:38;;;;;;;2.13;1.97;;;;;17.60;96205.00;;;;5035544;28;20266;-56
2023/07/08 02:52:06;;;;;;;1.17;1.17;;;;;17.80;96206.00;;;;5035527;28;20240;-57
2023/07/08 02:54:33;;;;;;;1.20;1.20;;;;;17.60;96207.00;;;;5035535;28;20204;-56
2023/07/08 02:57:01;;;;;;;4.40;1.63;;;;;17.70;96216.00;;;;5035461;28;20200;-56
2023/07/08 02:59:28;;;;;;;1.80;1.30;;;;;17.60;96208.00;;;;5035367;28;20216;-57
2023/07/08 03:01:57;;;;;;;0.90;0.90;;;;;17.50;96195.00;;;;5035352;28;20216;-56
2023/07/08 03:04:25;;;;;;;1.77;1.67;;;;;17.10;96202.00;;;;5036054;28;20216;-57
2023/07/08 03:06:52;;;;;;;0.70;0.70;;;;;17.30;96200.00;;;;5035810;28;20207;-56
2023/07/08 03:09:20;;;;;;;1.67;1.57;;;;;17.20;96209.00;;;;5033779;28;20699;-56
2023/07/08 03:11:47;;;;;;;1.27;1.27;;;;;17.20;96203.00;;;;5035457;28;20216;-56
2023/07/08 03:14:14;;;;;;;0.83;0.83;;;;;17.20;96192.00;;;;5035393;28;20668;-56
2023/07/08 03:16:42;;;;;;;0.70;0.70;;;;;17.00;96214.00;;;;5035159;28;20200;-56
2023/07/08 03:19:14;;;;;;;11.37;2.27;;;;;16.80;96186.00;;;;5034949;28;20212;-56
2023/07/08 03:21:42;;;;;;;1.03;1.03;;;;;16.80;96188.00;;;;5035215;28;20268;-56
2023/07/08 03:24:11;;;;;;;0.80;0.80;;;;;16.90;96189.00;;;;5034967;28;20189;-56
2023/07/08 03:26:39;;;;;;;1.13;1.13;;;;;16.70;96190.00;;;;5033640;28;20702;-56
2023/07/08 03:29:13;;;;;;;1.30;1.20;;;;;16.70;96187.00;;;;5034678;28;20552;-56
2023/07/08 03:31:40;;;;;;;1.07;1.07;;;;;16.60;96190.00;;;;5034687;28;20318;-56
2023/07/08 03:34:10;;;;;;;1.03;1.03;;;;;16.10;96200.00;;;;5034777;28;20648;-56
2023/07/08 03:36:44;;;;;;;1.00;1.00;;;;;16.20;96200.00;;;;5034786;28;20184;-56
2023/07/08 03:39:12;;;;;;;0.80;0.80;;;;;16.40;96206.00;;;;5035084;28;20292;-56
2023/07/08 03:41:39;;;;;;;1.70;1.60;;;;;16.50;96201.00;;;;5034716;28;20665;-57
2023/07/08 03:44:06;;;;;;;1.30;1.20;;;;;16.60;96207.00;;;;5034871;28;20197;-57
2023/07/08 03:46:34;;;;;;;0.93;0.93;;;;;16.70;96210.00;;;;5035073;28;20242;-56
2023/07/08 03:49:02;;;;;;;1.30;1.30;;;;;16.80;96210.00;;;;5034443;28;20216;-57
2023/07/08 03:51:34;;;;;;;1.07;1.07;;;;;16.80;96203.00;;;;5034429;28;20217;-56
2023/07/08 03:54:02;;;;;;;1.03;1.00;;;;;16.90;96206.00;;;;5034649;28;20184;-57
2023/07/08 03:56:29;;;;;;;1.00;1.00;;;;;16.90;96214.00;;;;5034680;28;20192;-56
2023/07/08 03:58:57;;;;;;;3.67;1.67;;;;;17.00;96213.00;;;;5034252;28;20271;-56
2023/07/08 04:01:26;;;;;;;1.63;1.53;;;;;17.10;96203.00;;;;5034255;28;20193;-56
2023/07/08 04:03:55;;;;;;;1.90;1.80;;;;;17.20;96207.00;;;;5034218;28;20255;-57
2023/07/08 04:06:24;;;;;;;1.83;1.73;;;;;16.80;96197.00;;;;5034191;28;20196;-57
2023/07/08 04:08:53;;;;;;;2.17;1.57;;;;;17.00;96202.00;;;;5034045;28;20220;-56
2023/07/08 04:11:22;;;;;;;0.87;0.87;;;;;16.70;96193.00;;;;5034049;28;20211;-57
2023/07/08 04:13:50;;;;;;;1.17;1.17;;;;;16.80;96196.00;;;;5034057;28;20201;-56
2023/07/08 04:16:20;;;;;;;1.90;1.63;;;;;16.80;96200.00;;;;5033949;28;20189;-56
2023/07/08 04:18:50;;;;;;;1.40;1.30;;;;;16.70;96204.00;;;;5033874;28;20224;-56
2023/07/08 04:21:18;;;;;;;0.70;0.70;;;;;16.90;96200.00;;;;5033887;28;20185;-56
2023/07/08 04:23:45;;;;;;;1.03;1.03;;;;;17.00;96198.00;;;;5033852;28;20188;-56
2023/07/08 04:26:14;;;;;;;4.90;1.00;;;;;17.00;96200.00;;;;5034048;28;20536;-56
2023/07/08 04:28:43;;;;;;;1.80;1.67;;;;;16.90;96198.00;;;;5033782;28;20659;-56
2023/07/08 04:31:10;;;;;;;1.57;1.47;;;;;17.00;96198.00;;;;5034180;28;20221;-56
2023/07/08 04:33:37;;;;;;;2.37;1.47;;;;;17.10;96202.00;;;;5033675;28;20192;-56
2023/07/08 04:36:10;;;;;;;5.83;1.63;;;;;17.10;96199.00;;;;5033703;28;20532;-56
2023/07/08 04:38:37;;;;;;;1.17;1.07;;;;;17.30;96193.00;;;;5033445;28;20220;-56
2023/07/08 04:41:05;;;;;;;0.93;0.93;;;;;17.50;96203.00;;;;5033575;28;20185;-57
2023/07/08 04:43:34;;;;;;;1.00;1.00;;;;;17.60;96199.00;;;;5033493;28;20196;-57
2023/07/08 04:46:01;;;;;;;1.10;1.10;;;;;16.80;96218.00;;;;5033784;28;20196;-57
2023/07/08 04:48:29;;;;;;;2.07;1.13;;;;;16.80;96227.00;;;;5033246;28;20204;-57
2023/07/08 04:50:57;;;;;;;2.03;1.60;;;;;17.00;96216.00;;;;5033297;28;20291;-57
2023/07/08 04:53:24;;;;;;;1.00;1.00;;;;;17.30;96213.00;;;;5033263;28;20219;-57
2023/07/08 04:56:19;;;;;;;1.27;1.27;;;;;17.60;96213.00;;;;5033402;28;20251;-59
2023/07/08 04:58:48;;;;;;;1.53;1.43;;;;;17.50;96213.00;;;;5031978;28;20216;-57
2023/07/08 05:01:15;;;;;;;3.50;1.43;;;;;17.70;96220.00;;;;5033224;28;20675;-57
2023/07/08 05:03:43;;;;;;;1.07;1.07;;;;;17.80;96231.00;;;;5033627;28;20714;-57
2023/07/08 05:06:10;;;;;;;1.93;1.73;;;;;18.00;96215.00;;;;5033101;28;20686;-57
2023/07/08 05:08:38;;;;;;;1.03;1.03;;;;;18.20;96219.00;;;;5032879;28;20559;-57
2023/07/08 05:11:06;;;;;;;1.50;1.40;;;;;18.30;96230.00;;;;5033070;28;20200;-57
2023/07/08 05:13:33;;;;;;;1.37;1.33;;;;;18.50;96233.00;;;;5033070;28;20656;-57
2023/07/08 05:16:02;;;;;;;1.23;1.20;;;;;18.70;96232.00;;;;5033572;28;20200;-56
2023/07/08 05:18:29;;;;;;;11.33;2.07;;;;;18.90;96236.00;;;;5033474;28;20200;-57
2023/07/08 05:20:57;;;;;;;1.27;1.27;;;;;18.90;96237.00;;;;5032885;28;20212;-57
2023/07/08 05:23:25;;;;;;;2.33;1.60;;;;;19.10;96230.00;;;;5032989;28;20280;-57
2023/07/08 05:25:54;;;;;;;1.47;1.37;;;;;19.20;96233.00;;;;5033668;28;20216;-57
2023/07/08 05:28:23;;;;;;;7.60;2.07;;;;;19.20;96236.00;;;;5033575;28;20648;-57
2023/07/08 05:30:55;;;;;;;1.83;1.10;;;;;19.10;96248.00;;;;5033004;28;20193;-57
2023/07/08 05:33:24;;;;;;;2.77;2.37;;;;;18.90;96261.00;;;;5031606;28;20192;-57
2023/07/08 05:35:52;;;;;;;1.43;1.30;;;;;18.90;96262.00;;;;5032766;28;20603;-57
2023/07/08 05:38:20;;;;;;;1.80;1.70;;;;;18.60;96253.00;;;;5033254;28;20246;-57
2023/07/08 05:40:50;;;;;;;1.53;1.43;;;;;18.70;96257.00;;;;5031521;28;20243;-57
2023/07/08 05:43:18;;;;;;;0.80;0.80;;;;;18.80;96259.00;;;;5033037;28;20189;-57
2023/07/08 05:45:46;;;;;;;1.70;1.10;;;;;18.80;96260.00;;;;5032681;28;20279;-57
2023/07/08 05:48:13;;;;;;;1.60;1.50;;;;;18.80;96251.00;;;;5032728;28;20200;-58
2023/07/08 05:50:42;;;;;;;2.27;1.53;;;;;19.10;96254.00;;;;5032633;28;20726;-56
2023/07/08 05:53:11;;;;;;;0.93;0.93;;;;;19.20;96249.00;;;;5034224;28;20212;-56
2023/07/08 05:55:42;;;;;;;2.10;1.90;;;;;19.30;96256.00;;;;5036868;28;20204;-56
2023/07/08 05:58:10;;;;;;;0.97;0.97;;;;;19.40;96249.00;;;;5036749;28;20733;-56
2023/07/08 06:00:37;;;;;;;2.37;2.23;;;;;19.50;96258.00;;;;5036481;28;20303;-57
2023/07/08 06:03:05;;;;;;;1.33;1.30;;;;;19.60;96251.00;;;;5036521;28;20196;-57
2023/07/08 06:05:33;;;;;;;1.40;1.20;;;;;19.90;96245.00;;;;5036464;28;20250;-57
2023/07/08 06:08:02;;;;;;;1.67;1.43;;;;;20.30;96237.00;;;;5036742;28;20193;-57
2023/07/08 06:10:29;;;;;;;1.73;1.63;;;;;20.80;96248.00;;;;5036254;28;20221;-57
2023/07/08 06:12:57;;;;;;;1.23;1.13;;;;;21.00;96245.00;;;;5036513;28;20243;-57
2023/07/08 06:15:24;;;;;;;1.13;1.13;;;;;21.10;96252.00;;;;5036272;28;20201;-57
2023/07/08 06:17:51;;;;;;;1.00;1.00;;;;;21.10;96253.00;;;;5036237;28;20200;-56
2023/07/08 06:20:19;;;;;;;1.08;1.08;;;;;21.30;96247.00;;;;5036135;28;20216;-56
2023/07/08 06:22:46;;;;;;;3.88;1.13;;;;;21.20;96252.00;;;;5036143;28;20196;-54
2023/07/08 06:25:15;;;;;;;1.07;1.07;;;;;21.20;96249.00;;;;5036135;28;20242;-57
2023/07/08 06:27:42;;;;;;;8.32;1.67;;;;;21.30;96253.00;;;;5036107;28;20197;-55
2023/07/08 06:30:10;;;;;;;1.00;0.98;;;;;21.60;96254.00;;;;5035963;28;20213;-55
2023/07/08 06:32:38;;;;;;;0.80;0.80;;;;;21.70;96255.00;;;;5036109;28;20216;-55
2023/07/08 06:35:06;;;;;;;0.63;0.63;;;;;21.90;96273.00;;;;5035951;28;20199;-56
2023/07/08 06:37:33;;;;;;;2.38;1.42;;;;;21.90;96271.00;;;;5035184;28;20203;-56
2023/07/08 06:40:01;;;;;;;0.75;0.75;;;;;21.90;96274.00;;;;5035962;28;20219;-56
2023/07/08 06:42:30;;;;;;;0.60;0.60;;;;;22.00;96278.00;;;;5035723;28;20762;-56
2023/07/08 06:44:57;;;;;;;1.85;1.23;;;;;22.00;96275.00;;;;5036044;28;20236;-56
2023/07/08 06:47:25;;;;;;;0.73;0.73;;;;;22.20;96278.00;;;;5036121;28;20250;-56
2023/07/08 06:49:52;;;;;;;1.15;1.15;;;;;22.20;96287.00;;;;5035589;28;20307;-57
2023/07/08 06:52:20;;;;;;;0.98;0.98;;;;;22.40;96283.00;;;;5036114;28;20699;-57
2023/07/08 06:54:47;;;;;;;0.95;0.95;;;;;22.60;96290.00;;;;5035623;28;20197;-57
2023/07/08 06:57:15;;;;;;;0.73;0.73;;;;;22.70;96288.00;;;;5035485;28;20200;-57
2023/07/08 06:59:43;;;;;;;1.73;1.00;;;;;22.80;96295.00;;;;5035423;28;20215;-57
2023/07/08 07:02:11;;;;;;;0.60;0.60;;;;;22.90;96293.00;;;;5035442;28;20672;-57
2023/07/08 07:04:38;;;;;;;2.10;1.77;;;;;23.00;96294.00;;;;5034462;28;20203;-57
2023/07/08 07:07:06;;;;;;;1.27;1.17;;;;;23.00;96291.00;;;;5035587;28;20197;-56
2023/07/08 07:09:33;;;;;;;0.90;0.90;;;;;23.00;96291.00;;;;5035329;28;20236;-56
2023/07/08 07:12:01;;;;;;;1.60;1.50;;;;;22.80;96293.00;;;;5033939;28;20220;-56
2023/07/08 07:14:28;;;;;;;0.90;0.90;;;;;22.70;96291.00;;;;5035134;28;20203;-56
2023/07/08 07:16:57;;;;;;;1.65;1.25;;;;;22.80;96291.00;;;;5035323;28;20652;-56
2023/07/08 07:19:25;;;;;;;2.83;1.27;;;;;22.80;96290.00;;;;5035202;28;20551;-56
2023/07/08 07:21:52;;;;;;;1.08;1.08;;;;;23.00;96299.00;;;;5035061;28;20189;-56
2023/07/08 07:24:20;;;;;;;3.20;1.05;;;;;23.20;96291.00;;;;5035242;28;20648;-56
2023/07/08 07:26:47;;;;;;;0.93;0.93;;;;;23.40;96293.00;;;;5034910;28;20193;-56
2023/07/08 07:29:17;;;;;;;0.98;0.88;;;;;23.40;96294.00;;;;5035245;28;20216;-56
2023/07/08 07:31:44;;;;;;;0.80;0.80;;;;;23.50;96289.00;;;;5034723;28;20251;-56
2023/07/08 07:34:14;;;;;;;0.90;0.90;;;;;23.60;96283.00;;;;5034922;28;20188;-56
2023/07/08 07:36:41;;;;;;;0.70;0.70;;;;;23.90;96280.00;;;;5034611;28;20193;-56
2023/07/08 07:39:09;;;;;;;0.57;0.57;;;;;24.20;96287.00;;;;5034613;28;20236;-56
2023/07/08 07:41:36;;;;;;;0.50;0.50;;;;;24.20;96292.00;;;;5034957;28;20564;-56
2023/07/08 07:44:04;;;;;;;1.55;1.45;;;;;23.90;96285.00;;;;5034756;28;20189;-56
2023/07/08 07:46:31;;;;;;;1.00;1.00;;;;;24.00;96291.00;;;;5034517;28;20192;-56
2023/07/08 07:48:58;;;;;;;0.60;0.60;;;;;24.10;96288.00;;;;5034629;28;20258;-56
2023/07/08 07:51:27;;;;;;;1.70;1.60;;;;;24.10;96295.00;;;;5034406;28;20212;-57
2023/07/08 07:53:55;;;;;;;0.68;0.68;;;;;24.20;96292.00;;;;5034673;28;20221;-57
2023/07/08 07:56:22;;;;;;;2.08;0.80;;;;;24.30;96293.00;;;;5034298;28;20197;-57
2023/07/08 07:58:50;;;;;;;1.08;1.05;;;;;24.60;96288.00;;;;5034437;28;20209;-56
2023/07/08 08:01:18;;;;;;;0.90;0.90;;;;;25.10;96293.00;;;;5034620;28;20197;-57
2023/07/08 08:03:45;;;;;;;0.70;0.70;;;;;25.40;96284.00;;;;5034491;28;20205;-57
2023/07/08 08:06:12;;;;;;;1.65;1.55;;;;;25.50;96292.00;;;;5034149;28;20192;-57
2023/07/08 08:08:41;;;;;;;0.82;0.82;;;;;25.60;96301.00;;;;5033896;28;20196;-55
2023/07/08 08:11:09;;;;;;;1.13;0.85;;;;;25.50;96300.00;;;;5034185;28;20184;-57
2023/07/08 08:13:36;;;;;;;0.60;0.60;;;;;25.50;96295.00;;;;5034034;28;20714;-57
2023/07/08 08:16:05;;;;;;;0.75;0.75;;;;;25.80;96286.00;;;;5033970;28;20193;-57
2023/07/08 08:18:33;;;;;;;4.30;0.88;;;;;25.70;96284.00;;;;5034316;28;20191;-57
2023/07/08 08:21:00;;;;;;;1.27;1.20;;;;;25.80;96294.00;;;;5033901;28;20197;-56
2023/07/08 08:23:27;;;;;;;0.90;0.90;;;;;25.80;96298.00;;;;5033932;28;20196;-56
2023/07/08 08:25:56;;;;;;;7.78;1.27;;;;;25.80;96289.00;;;;5033875;28;20251;-57
2023/07/08 08:28:24;;;;;;;3.05;1.75;;;;;26.10;96290.00;;;;5033948;28;20193;-57
2023/07/08 08:30:52;;;;;;;0.90;0.90;;;;;26.20;96274.00;;;;5033683;28;20197;-57
2023/07/08 08:33:20;;;;;;;1.45;1.13;;;;;26.30;96285.00;;;;5034337;28;20227;-57
2023/07/08 08:35:48;;;;;;;1.23;1.20;;;;;26.50;96284.00;;;;5032272;28;20193;-57
2023/07/08 08:38:17;;;;;;;0.57;0.57;;;;;26.40;96276.00;;;;5032248;28;20718;-57
2023/07/08 08:40:45;;;;;;;0.80;0.80;;;;;26.80;96286.00;;;;5033951;28;20220;-56
2023/07/08 08:43:19;;;;;;;0.93;0.93;;;;;27.00;96280.00;;;;5033842;28;20185;-56
2023/07/08 08:45:56;;;;;;;1.60;1.50;;;;;26.90;96278.00;;;;5033426;28;20187;-57
2023/07/08 08:48:27;;;;;;;1.23;1.15;;;;;27.10;96293.00;;;;5033393;28;20189;-56
2023/07/08 08:51:00;;;;;;;1.10;1.08;;;;;26.90;96292.00;;;;5033650;28;20187;-56
2023/07/08 08:53:28;;;;;;;0.98;0.98;;;;;27.00;96292.00;;;;5033264;28;20652;-57
2023/07/08 08:56:02;;;;;;;0.90;0.90;;;;;26.60;96297.00;;;;5033305;28;20208;-56
2023/07/08 08:58:41;;;;;;;1.73;1.63;;;;;26.70;96302.00;;;;5033403;28;20177;-56
2023/07/08 09:01:12;;;;;;;1.10;1.02;;;;;26.30;96318.00;;;;5031915;28;20200;-57
2023/07/08 09:03:47;;;;;;;0.80;0.80;;;;;26.10;96324.00;;;;5033432;28;20183;-57
2023/07/08 09:06:19;;;;;;;0.98;0.98;;;;;26.10;96320.00;;;;5033183;28;20236;-57
2023/07/08 09:08:48;;;;;;;0.80;0.80;;;;;26.00;96324.00;;;;5033178;28;20746;-57
2023/07/08 09:11:24;;;;;;;1.20;1.17;;;;;25.90;96323.00;;;;5033368;28;20526;-57
2023/07/08 09:13:53;;;;;;;1.05;1.05;;;;;25.60;96326.00;;;;5033038;28;20647;-57
2023/07/08 09:16:30;;;;;;;1.88;0.88;;;;;25.50;96308.00;;;;5033271;28;20666;-57
2023/07/08 09:19:07;;;;;;;0.77;0.77;;;;;25.80;96302.00;;;;5032891;28;20227;-57
2023/07/08 09:21:41;;;;;;;0.80;0.80;;;;;26.40;96291.00;;;;5033258;28;20177;-57
2023/07/08 09:24:16;;;;;;;1.15;1.15;;;;;26.50;96298.00;;;;5032934;28;20535;-57
2023/07/08 09:26:44;;;;;;;5.97;1.10;;;;;26.70;96303.00;;;;5033347;28;20188;-57
2023/07/08 09:29:13;;;;;;;0.65;0.65;;;;;26.80;96297.00;;;;5032217;28;20696;-57
2023/07/08 09:31:42;;;;;;;0.82;0.82;;;;;26.80;96298.00;;;;5032792;28;20197;-57
2023/07/08 09:34:12;;;;;;;0.70;0.70;;;;;26.40;96294.00;;;;5032529;28;20224;-57
2023/07/08 09:36:42;;;;;;;0.85;0.85;;;;;26.80;96296.00;;;;5033084;28;20192;-57
2023/07/08 09:39:15;;;;;;;0.57;0.57;;;;;26.80;96295.00;;;;5032865;28;20223;-57
2023/07/08 09:41:45;;;;;;;0.68;0.68;;;;;26.90;96292.00;;;;5033252;28;20558;-56
2023/07/08 09:44:25;;;;;;;0.60;0.60;;;;;27.10;96299.00;;;;5032899;28;20204;-57
2023/07/08 09:46:53;;;;;;;0.70;0.70;;;;;27.30;96299.00;;;;5033226;28;20203;-56
2023/07/08 09:49:23;;;;;;;1.38;1.27;;;;;27.30;96297.00;;;;5032539;28;20584;-57
2023/07/08 09:51:52;;;;;;;0.80;0.80;;;;;27.30;96296.00;;;;5032471;28;20662;-56
2023/07/08 09:54:21;;;;;;;0.95;0.95;;;;;27.50;96290.00;;;;5032406;28;20270;-56
2023/07/08 09:57:04;;;;;;;0.80;0.80;;;;;27.40;96289.00;;;;5032348;28;20193;-56
2023/07/08 09:59:39;;;;;;;0.80;0.80;;;;;27.80;96292.00;;;;5032309;28;20212;-56
2023/07/08 10:02:26;;;;;;;1.30;1.23;;;;;28.10;96294.00;;;;5032828;28;20631;-57
2023/07/08 10:04:54;;;;;;;2.42;1.98;;;;;27.90;96291.00;;;;5032653;28;20185;-57
2023/07/08 10:07:22;;;;;;;1.27;1.23;;;;;27.90;96295.00;;;;5032264;28;20267;-56
2023/07/08 10:09:51;;;;;;;1.23;1.23;;;;;28.10;96296.00;;;;5032066;28;20311;-57
2023/07/08 10:12:20;;;;;;;0.70;0.70;;;;;28.40;96295.00;;;;5031921;28;20193;-57
2023/07/08 10:14:53;;;;;;;1.17;1.10;;;;;28.50;96296.00;;;;5032640;28;20200;-57
2023/07/08 10:17:22;;;;;;;0.68;0.68;;;;;28.30;96296.00;;;;5032514;28;20188;-56
2023/07/08 10:19:50;;;;;;;0.60;0.60;;;;;28.60;96293.00;;;;5032448;28;20220;-56
2023/07/08 10:22:30;;;;;;;0.88;0.88;;;;;28.50;96295.00;;;;5032324;28;20197;-56
2023/07/08 10:25:10;;;;;;;0.90;0.90;;;;;28.80;96300.00;;;;5032566;28;20185;-57
2023/07/08 10:27:45;;;;;;;0.80;0.80;;;;;29.00;96298.00;;;;5032130;28;20204;-57
2023/07/08 10:30:22;;;;;;;0.70;0.70;;;;;29.00;96306.00;;;;5032340;28;20219;-57
2023/07/08 10:33:13;;;;;;;1.27;1.27;;;;;28.90;96306.00;;;;5031838;28;20217;-57
2023/07/08 10:35:45;;;;;;;0.80;0.80;;;;;28.90;96296.00;;;;5032274;28;20229;-57
2023/07/08 10:38:28;;;;;;;0.85;0.85;;;;;29.00;96294.00;;;;5032156;28;20181;-57
2023/07/08 10:41:01;;;;;;;0.95;0.95;;;;;29.30;96297.00;;;;5035725;28;20579;-57
2023/07/08 10:43:45;;;;;;;1.08;1.08;;;;;29.40;96302.00;;;;5035768;28;20267;-57
2023/07/08 10:46:25;;;;;;;0.70;0.70;;;;;29.40;96295.00;;;;5035663;28;20181;-57
2023/07/08 10:49:38;;;;;;;1.13;1.08;;;;;29.80;96295.00;;;;5035799;28;20746;-57
2023/07/08 10:52:23;;;;;;;0.90;0.90;;;;;29.80;96291.00;;;;4974795;28;20209;-57
2023/07/08 10:55:03;;;;;;;0.90;0.90;;;;;30.00;96295.00;;;;5028040;28;20699;-57
2023/07/08 10:57:55;;;;;;;1.67;1.58;;;;;30.00;96294.00;;;;5035418;28;20624;-57
2023/07/08 11:00:32;;;;;;;0.65;0.65;;;;;29.50;96296.00;;;;5035505;28;20216;-57
2023/07/08 11:03:35;;;;;;;0.80;0.80;;;;;29.50;96295.00;;;;5035383;28;20200;-59
2023/07/08 11:06:10;;;;;;;0.82;0.82;;;;;29.20;96289.00;;;;4987427;28;20262;-57
2023/07/08 11:08:44;;;;;;;1.10;1.10;;;;;29.50;96282.00;;;;5035656;28;20599;-57
2023/07/08 11:11:23;;;;;;;2.13;1.20;;;;;29.60;96291.00;;;;5033947;28;20250;-57
2023/07/08 11:13:53;;;;;;;1.92;1.75;;;;;30.10;96281.00;;;;5035003;28;20193;-57
2023/07/08 11:16:26;;;;;;;1.00;1.00;;;;;29.90;96291.00;;;;5036089;28;20540;-57
2023/07/08 11:18:57;;;;;;;0.98;0.98;;;;;29.90;96281.00;;;;5035367;28;20629;-57
2023/07/08 11:21:31;;;;;;;1.95;1.50;;;;;30.10;96287.00;;;;5035313;28;20539;-57
2023/07/08 11:24:05;;;;;;;0.98;0.98;;;;;29.60;96293.00;;;;5035260;28;20180;-57
2023/07/08 11:26:39;;;;;;;1.73;1.38;;;;;29.60;96293.00;;;;5035596;28;20668;-56
2023/07/08 11:29:16;;;;;;;0.63;0.63;;;;;30.10;96280.00;;;;5035080;28;20354;-57
2023/07/08 11:31:44;;;;;;;1.00;1.00;;;;;30.10;96276.00;;;;5034819;28;20181;-57
2023/07/08 11:34:14;;;;;;;0.70;0.70;;;;;30.20;96276.00;;;;5034910;28;20580;-57
2023/07/08 11:36:45;;;;;;;0.80;0.80;;;;;30.40;96291.00;;;;5034731;28;20231;-57
2023/07/08 11:39:28;;;;;;;1.00;1.00;;;;;30.20;96285.00;;;;5035241;28;20223;-57
2023/07/08 11:42:15;;;;;;;2.30;1.23;;;;;29.60;96287.00;;;;5034861;28;20188;-58
2023/07/08 11:44:47;;;;;;;1.00;1.00;;;;;29.60;96279.00;;;;5034726;28;20256;-55
2023/07/08 11:47:20;;;;;;;1.05;1.00;;;;;30.10;96268.00;;;;5034571;28;20231;-56
2023/07/08 11:49:49;;;;;;;0.75;0.75;;;;;30.20;96257.00;;;;5034317;28;20212;-56
2023/07/08 11:52:21;;;;;;;1.17;1.13;;;;;30.80;96252.00;;;;5034073;28;20655;-57
2023/07/08 11:54:55;;;;;;;0.93;0.93;;;;;31.30;96249.00;;;;5034818;28;20545;-57
2023/07/08 11:57:29;;;;;;;1.10;1.00;;;;;31.60;96256.00;;;;5034396;28;20243;-57
2023/07/08 12:00:15;;;;;;;1.13;0.93;;;;;31.90;96282.00;;;;5034564;28;20213;-57
2023/07/08 12:02:52;;;;;;;1.35;1.25;;;;;31.50;96246.00;;;;5034717;28;20218;-57
2023/07/08 12:05:34;;;;;;;0.82;0.82;;;;;31.60;96242.00;;;;5034581;28;20173;-57
2023/07/08 12:08:12;;;;;;;1.42;1.33;;;;;31.60;96240.00;;;;5034572;28;20177;-57
2023/07/08 12:10:46;;;;;;;1.17;1.17;;;;;31.20;96245.00;;;;5034641;28;20776;-57
2023/07/08 12:13:16;;;;;;;0.95;0.95;;;;;31.20;96242.00;;;;5034166;28;20177;-57
2023/07/08 12:15:44;;;;;;;0.70;0.70;;;;;31.10;96237.00;;;;5033927;28;20185;-57
2023/07/08 12:18:17;;;;;;;3.85;1.17;;;;;31.20;96276.00;;;;5032488;28;20221;-57
2023/07/08 12:20:47;;;;;;;0.73;0.73;;;;;31.10;96280.00;;;;5033729;28;20688;-57
2023/07/08 12:23:19;;;;;;;0.90;0.90;;;;;31.00;96266.00;;;;5034124;28;20181;-57
2023/07/08 12:25:46;;;;;;;0.60;0.60;;;;;30.80;96272.00;;;;5033682;28;20185;-56
2023/07/08 12:28:15;;;;;;;1.00;1.00;;;;;31.20;96265.00;;;;5034383;28;20196;-56
2023/07/08 12:30:45;;;;;;;1.05;0.95;;;;;32.00;96260.00;;;;5033517;28;20220;-56
2023/07/08 12:33:15;;;;;;;0.90;0.90;;;;;31.90;96272.00;;;;5034473;28;20524;-55
2023/07/08 12:35:43;;;;;;;0.80;0.80;;;;;31.50;96241.00;;;;5034116;28;20180;-56